sensor_id;sensor_type;location;lat;lon;timestamp;pressure;altitude;pressure_sealevel;temperature;humidity
50302;BME280;36550;50.472;19.744;2023-03-20T00:02:40;98036.36;;;5.17;59.15
50302;BME280;36550;50.472;19.744;2023-03-20T00:05:24;98034.69;;;5.15;59.52
50302;BME280;36550;50.472;19.744;2023-03-20T00:08:08;98030.60;;;5.13;59.53
50302;BME280;36550;50.472;19.744;2023-03-20T00:10:53;98028.15;;;5.11;59.50
50302;BME280;36550;50.472;19.744;2023-03-20T00:13:37;98032.64;;;5.06;59.63
50302;BME280;36550;50.472;19.744;2023-03-20T00:16:22;98030.46;;;5.00;59.50
50302;BME280;36550;50.472;19.744;2023-03-20T00:19:14;98031.30;;;4.96;59.57
50302;BME280;36550;50.472;19.744;2023-03-20T00:22:00;98030.98;;;4.93;59.72
50302;BME280;36550;50.472;19.744;2023-03-20T00:24:44;98028.84;;;4.91;60.08
50302;BME280;36550;50.472;19.744;2023-03-20T00:27:28;98025.96;;;4.90;60.06
50302;BME280;36550;50.472;19.744;2023-03-20T00:30:46;98020.08;;;4.89;60.00
50302;BME280;36550;50.472;19.744;2023-03-20T00:33:23;98014.75;;;4.87;59.97
50302;BME280;36550;50.472;19.744;2023-03-20T00:36:07;98012.31;;;4.87;59.98
50302;BME280;36550;50.472;19.744;2023-03-20T00:38:51;98015.15;;;4.88;60.12
50302;BME280;36550;50.472;19.744;2023-03-20T00:44:23;98011.40;;;4.92;60.30
50302;BME280;36550;50.472;19.744;2023-03-20T00:47:15;98011.73;;;4.92;60.38
50302;BME280;36550;50.472;19.744;2023-03-20T00:50:01;98012.23;;;4.92;60.41
50302;BME280;36550;50.472;19.744;2023-03-20T00:52:45;98011.00;;;4.92;60.38
50302;BME280;36550;50.472;19.744;2023-03-20T00:55:30;98008.94;;;4.92;60.41
50302;BME280;36550;50.472;19.744;2023-03-20T00:58:14;98008.05;;;4.93;60.70
50302;BME280;36550;50.472;19.744;2023-03-20T01:00:58;98004.84;;;4.95;60.70
50302;BME280;36550;50.472;19.744;2023-03-20T01:03:43;98006.41;;;4.97;60.77
50302;BME280;36550;50.472;19.744;2023-03-20T01:06:27;98002.60;;;4.98;61.01
50302;BME280;36550;50.472;19.744;2023-03-20T01:09:14;98003.33;;;5.00;61.14
50302;BME280;36550;50.472;19.744;2023-03-20T01:12:01;97999.34;;;5.05;61.23
50302;BME280;36550;50.472;19.744;2023-03-20T01:14:47;98002.75;;;5.10;61.49
50302;BME280;36550;50.472;19.744;2023-03-20T01:17:32;98003.50;;;5.16;61.83
50302;BME280;36550;50.472;19.744;2023-03-20T01:20:18;98002.16;;;5.23;61.71
50302;BME280;36550;50.472;19.744;2023-03-20T01:23:03;97999.95;;;5.29;61.66
50302;BME280;36550;50.472;19.744;2023-03-20T01:25:48;97998.67;;;5.35;61.72
50302;BME280;36550;50.472;19.744;2023-03-20T01:28:32;97998.10;;;5.42;61.80
50302;BME280;36550;50.472;19.744;2023-03-20T01:31:16;98000.23;;;5.50;61.61
50302;BME280;36550;50.472;19.744;2023-03-20T01:34:01;97999.81;;;5.57;61.70
50302;BME280;36550;50.472;19.744;2023-03-20T01:36:53;97996.60;;;5.66;62.03
50302;BME280;36550;50.472;19.744;2023-03-20T01:39:38;97998.52;;;5.77;61.84
50302;BME280;36550;50.472;19.744;2023-03-20T01:42:22;97994.80;;;5.87;61.66
50302;BME280;36550;50.472;19.744;2023-03-20T01:45:12;97995.91;;;5.97;61.66
50302;BME280;36550;50.472;19.744;2023-03-20T01:47:58;97996.26;;;6.06;61.49
50302;BME280;36550;50.472;19.744;2023-03-20T01:50:42;97993.34;;;6.15;61.49
50302;BME280;36550;50.472;19.744;2023-03-20T01:53:26;97990.62;;;6.23;61.41
50302;BME280;36550;50.472;19.744;2023-03-20T01:56:12;97990.20;;;6.28;61.22
50302;BME280;36550;50.472;19.744;2023-03-20T01:58:59;97992.73;;;6.31;61.08
50302;BME280;36550;50.472;19.744;2023-03-20T02:01:45;97994.08;;;6.34;61.00
50302;BME280;36550;50.472;19.744;2023-03-20T02:04:32;97993.73;;;6.38;61.28
50302;BME280;36550;50.472;19.744;2023-03-20T02:07:17;97996.32;;;6.45;61.31
50302;BME280;36550;50.472;19.744;2023-03-20T02:10:10;97994.52;;;6.49;61.10
50302;BME280;36550;50.472;19.744;2023-03-20T02:12:55;97994.55;;;6.54;61.08
50302;BME280;36550;50.472;19.744;2023-03-20T02:15:56;97997.58;;;6.59;60.95
50302;BME280;36550;50.472;19.744;2023-03-20T02:18:41;97997.11;;;6.61;60.87
50302;BME280;36550;50.472;19.744;2023-03-20T02:50:11;97981.44;;;6.94;60.75
50302;BME280;36550;50.472;19.744;2023-03-20T02:53:14;97982.77;;;6.97;60.64
50302;BME280;36550;50.472;19.744;2023-03-20T02:56:13;97981.16;;;6.99;60.66
50302;BME280;36550;50.472;19.744;2023-03-20T02:59:11;97981.80;;;7.00;60.52
50302;BME280;36550;50.472;19.744;2023-03-20T03:02:04;97978.38;;;7.00;60.65
50302;BME280;36550;50.472;19.744;2023-03-20T03:04:51;97982.08;;;7.00;60.71
50302;BME280;36550;50.472;19.744;2023-03-20T03:07:37;97979.40;;;6.99;60.52
50302;BME280;36550;50.472;19.744;2023-03-20T03:13:28;97980.80;;;6.98;60.37
50302;BME280;36550;50.472;19.744;2023-03-20T03:16:14;97981.66;;;6.96;60.68
50302;BME280;36550;50.472;19.744;2023-03-20T03:19:06;97983.60;;;6.95;60.65
50302;BME280;36550;50.472;19.744;2023-03-20T03:21:52;97980.83;;;6.93;60.70
50302;BME280;36550;50.472;19.744;2023-03-20T03:24:37;97978.84;;;6.91;60.69
50302;BME280;36550;50.472;19.744;2023-03-20T03:27:23;97977.37;;;6.90;60.70
50302;BME280;36550;50.472;19.744;2023-03-20T03:30:10;97972.81;;;6.87;60.78
50302;BME280;36550;50.472;19.744;2023-03-20T03:35:43;97973.95;;;6.84;60.77
50302;BME280;36550;50.472;19.744;2023-03-20T03:38:31;97977.38;;;6.83;60.81
50302;BME280;36550;50.472;19.744;2023-03-20T03:46:45;97969.40;;;6.80;60.99
50302;BME280;36550;50.472;19.744;2023-03-20T03:49:32;97970.21;;;6.80;60.98
50302;BME280;36550;50.472;19.744;2023-03-20T03:52:22;97965.04;;;6.80;60.99
50302;BME280;36550;50.472;19.744;2023-03-20T03:55:09;97963.07;;;6.80;61.19
50302;BME280;36550;50.472;19.744;2023-03-20T03:57:56;97963.54;;;6.81;61.09
50302;BME280;36550;50.472;19.744;2023-03-20T04:00:41;97963.89;;;6.83;61.29
50302;BME280;36550;50.472;19.744;2023-03-20T04:03:28;97964.36;;;6.84;61.27
50302;BME280;36550;50.472;19.744;2023-03-20T04:06:13;97966.87;;;6.89;61.55
50302;BME280;36550;50.472;19.744;2023-03-20T04:08:59;97967.44;;;6.94;61.61
50302;BME280;36550;50.472;19.744;2023-03-20T04:11:44;97969.20;;;6.98;61.76
50302;BME280;36550;50.472;19.744;2023-03-20T04:14:31;97967.40;;;7.03;61.61
50302;BME280;36550;50.472;19.744;2023-03-20T04:17:14;97970.60;;;7.05;61.38
50302;BME280;36550;50.472;19.744;2023-03-20T04:19:59;97968.80;;;7.05;61.27
50302;BME280;36550;50.472;19.744;2023-03-20T04:22:43;97970.80;;;7.04;61.26
50302;BME280;36550;50.472;19.744;2023-03-20T04:25:27;97968.65;;;7.02;61.70
50302;BME280;36550;50.472;19.744;2023-03-20T04:28:11;97970.88;;;7.00;61.32
50302;BME280;36550;50.472;19.744;2023-03-20T04:30:59;97968.08;;;6.98;61.19
50302;BME280;36550;50.472;19.744;2023-03-20T04:33:43;97969.83;;;6.95;61.18
50302;BME280;36550;50.472;19.744;2023-03-20T04:36:27;97972.02;;;6.93;61.17
50302;BME280;36550;50.472;19.744;2023-03-20T04:39:11;97971.46;;;6.91;61.20
50302;BME280;36550;50.472;19.744;2023-03-20T04:41:55;97972.36;;;6.89;61.23
50302;BME280;36550;50.472;19.744;2023-03-20T04:44:39;97978.61;;;6.89;61.32
50302;BME280;36550;50.472;19.744;2023-03-20T04:47:22;97977.39;;;6.90;61.38
50302;BME280;36550;50.472;19.744;2023-03-20T04:50:07;97974.91;;;6.91;61.53
50302;BME280;36550;50.472;19.744;2023-03-20T04:52:51;97973.49;;;6.92;61.62
50302;BME280;36550;50.472;19.744;2023-03-20T04:55:35;97977.45;;;6.95;61.60
50302;BME280;36550;50.472;19.744;2023-03-20T04:58:19;97974.82;;;6.98;61.68
50302;BME280;36550;50.472;19.744;2023-03-20T05:01:03;97977.78;;;7.01;61.83
50302;BME280;36550;50.472;19.744;2023-03-20T05:03:47;97981.29;;;7.04;62.12
50302;BME280;36550;50.472;19.744;2023-03-20T05:06:31;97981.25;;;7.09;61.87
50302;BME280;36550;50.472;19.744;2023-03-20T05:09:15;97983.50;;;7.15;61.79
50302;BME280;36550;50.472;19.744;2023-03-20T05:11:59;97984.25;;;7.21;61.76
50302;BME280;36550;50.472;19.744;2023-03-20T05:14:43;97985.40;;;7.27;61.68
50302;BME280;36550;50.472;19.744;2023-03-20T05:17:27;97986.91;;;7.34;61.75
50302;BME280;36550;50.472;19.744;2023-03-20T05:20:11;97991.23;;;7.40;61.92
50302;BME280;36550;50.472;19.744;2023-03-20T05:22:54;97992.55;;;7.47;61.78
50302;BME280;36550;50.472;19.744;2023-03-20T05:25:39;97992.52;;;7.53;61.94
50302;BME280;36550;50.472;19.744;2023-03-20T05:28:22;97990.96;;;7.60;61.74
50302;BME280;36550;50.472;19.744;2023-03-20T05:31:06;97992.14;;;7.65;61.60
50302;BME280;36550;50.472;19.744;2023-03-20T05:33:51;97992.44;;;7.73;61.42
50302;BME280;36550;50.472;19.744;2023-03-20T05:36:35;97996.42;;;7.83;61.42
50302;BME280;36550;50.472;19.744;2023-03-20T05:39:18;98000.20;;;7.94;61.51
50302;BME280;36550;50.472;19.744;2023-03-20T05:42:02;98000.52;;;8.04;61.47
50302;BME280;36550;50.472;19.744;2023-03-20T05:44:46;97995.95;;;8.14;61.39
50302;BME280;36550;50.472;19.744;2023-03-20T05:47:30;97996.64;;;8.23;61.39
50302;BME280;36550;50.472;19.744;2023-03-20T05:50:14;97996.14;;;8.34;61.31
50302;BME280;36550;50.472;19.744;2023-03-20T05:52:58;97997.64;;;8.44;61.24
50302;BME280;36550;50.472;19.744;2023-03-20T05:55:44;97997.24;;;8.52;61.16
50302;BME280;36550;50.472;19.744;2023-03-20T05:58:28;98002.19;;;8.61;61.10
50302;BME280;36550;50.472;19.744;2023-03-20T06:01:12;98000.70;;;8.71;61.09
50302;BME280;36550;50.472;19.744;2023-03-20T06:03:59;97999.34;;;8.82;61.12
50302;BME280;36550;50.472;19.744;2023-03-20T06:06:42;97997.95;;;8.95;61.04
50302;BME280;36550;50.472;19.744;2023-03-20T06:09:26;97998.26;;;9.07;60.93
50302;BME280;36550;50.472;19.744;2023-03-20T06:12:10;98003.20;;;9.18;60.81
50302;BME280;36550;50.472;19.744;2023-03-20T06:14:54;98006.73;;;9.30;60.83
50302;BME280;36550;50.472;19.744;2023-03-20T06:17:38;98012.94;;;9.40;60.82
50302;BME280;36550;50.472;19.744;2023-03-20T06:20:21;98012.39;;;9.51;60.65
50302;BME280;36550;50.472;19.744;2023-03-20T06:23:06;98014.98;;;9.60;60.61
50302;BME280;36550;50.472;19.744;2023-03-20T06:25:50;98013.37;;;9.67;60.70
50302;BME280;36550;50.472;19.744;2023-03-20T06:28:34;98018.60;;;9.73;60.65
50302;BME280;36550;50.472;19.744;2023-03-20T06:31:18;98016.89;;;9.78;60.52
50302;BME280;36550;50.472;19.744;2023-03-20T06:34:02;98023.36;;;9.85;60.52
50302;BME280;36550;50.472;19.744;2023-03-20T06:36:47;98025.65;;;9.91;60.31
50302;BME280;36550;50.472;19.744;2023-03-20T06:39:31;98030.13;;;10.02;60.55
50302;BME280;36550;50.472;19.744;2023-03-20T06:42:15;98032.17;;;10.20;60.57
50302;BME280;36550;50.472;19.744;2023-03-20T06:44:59;98035.37;;;10.39;60.45
50302;BME280;36550;50.472;19.744;2023-03-20T06:47:43;98035.64;;;10.58;60.20
50302;BME280;36550;50.472;19.744;2023-03-20T06:50:26;98035.56;;;10.73;59.99
50302;BME280;36550;50.472;19.744;2023-03-20T06:53:10;98035.86;;;10.93;59.99
50302;BME280;36550;50.472;19.744;2023-03-20T06:55:55;98040.14;;;11.17;59.70
50302;BME280;36550;50.472;19.744;2023-03-20T06:58:39;98035.81;;;11.41;59.32
50302;BME280;36550;50.472;19.744;2023-03-20T07:01:23;98041.48;;;11.65;59.04
50302;BME280;36550;50.472;19.744;2023-03-20T07:04:07;98043.04;;;11.85;58.08
50302;BME280;36550;50.472;19.744;2023-03-20T07:06:51;98043.46;;;11.98;57.98
50302;BME280;36550;50.472;19.744;2023-03-20T07:09:35;98049.46;;;12.14;57.72
50302;BME280;36550;50.472;19.744;2023-03-20T07:12:19;98051.52;;;12.27;57.66
50302;BME280;36550;50.472;19.744;2023-03-20T07:15:03;98051.50;;;12.37;57.12
50302;BME280;36550;50.472;19.744;2023-03-20T07:17:48;98053.30;;;12.48;56.76
50302;BME280;36550;50.472;19.744;2023-03-20T07:20:32;98053.89;;;12.57;57.11
50302;BME280;36550;50.472;19.744;2023-03-20T07:23:15;98055.73;;;12.67;56.68
50302;BME280;36550;50.472;19.744;2023-03-20T07:25:59;98056.66;;;12.74;56.46
50302;BME280;36550;50.472;19.744;2023-03-20T07:28:44;98054.80;;;12.81;56.16
50302;BME280;36550;50.472;19.744;2023-03-20T07:31:28;98053.66;;;12.89;56.64
50302;BME280;36550;50.472;19.744;2023-03-20T07:34:12;98050.70;;;12.99;56.32
50302;BME280;36550;50.472;19.744;2023-03-20T07:36:56;98058.77;;;13.06;56.04
50302;BME280;36550;50.472;19.744;2023-03-20T07:39:40;98061.45;;;13.16;55.70
50302;BME280;36550;50.472;19.744;2023-03-20T07:42:23;98063.80;;;13.29;55.46
50302;BME280;36550;50.472;19.744;2023-03-20T07:45:08;98064.23;;;13.40;54.84
50302;BME280;36550;50.472;19.744;2023-03-20T07:47:52;98062.63;;;13.52;54.49
50302;BME280;36550;50.472;19.744;2023-03-20T07:50:36;98055.95;;;13.61;54.54
50302;BME280;36550;50.472;19.744;2023-03-20T07:53:20;98053.58;;;13.76;54.27
50302;BME280;36550;50.472;19.744;2023-03-20T07:56:05;98056.34;;;13.90;54.74
50302;BME280;36550;50.472;19.744;2023-03-20T07:58:49;98049.78;;;14.02;54.01
50302;BME280;36550;50.472;19.744;2023-03-20T08:01:33;98051.52;;;14.09;53.82
50302;BME280;36550;50.472;19.744;2023-03-20T08:04:17;98051.88;;;14.09;52.41
50302;BME280;36550;50.472;19.744;2023-03-20T08:07:02;98053.59;;;14.12;53.31
50302;BME280;36550;50.472;19.744;2023-03-20T08:09:45;98055.96;;;14.23;53.80
50302;BME280;36550;50.472;19.744;2023-03-20T08:12:29;98058.96;;;14.33;53.96
50302;BME280;36550;50.472;19.744;2023-03-20T08:15:14;98061.52;;;14.37;53.83
50302;BME280;36550;50.472;19.744;2023-03-20T08:17:57;98062.40;;;14.33;52.19
50302;BME280;36550;50.472;19.744;2023-03-20T08:20:41;98068.85;;;14.25;52.24
50302;BME280;36550;50.472;19.744;2023-03-20T08:23:25;98069.62;;;14.20;52.33
50302;BME280;36550;50.472;19.744;2023-03-20T08:26:09;98074.31;;;14.11;52.07
50302;BME280;36550;50.472;19.744;2023-03-20T08:28:53;98077.08;;;14.04;52.00
50302;BME280;36550;50.472;19.744;2023-03-20T08:31:38;98080.14;;;13.95;52.00
50302;BME280;36550;50.472;19.744;2023-03-20T08:34:23;98085.27;;;13.88;52.13
50302;BME280;36550;50.472;19.744;2023-03-20T08:37:07;98086.36;;;13.87;52.24
50302;BME280;36550;50.472;19.744;2023-03-20T08:39:51;98085.48;;;13.89;52.34
50302;BME280;36550;50.472;19.744;2023-03-20T08:42:35;98084.61;;;14.02;53.12
50302;BME280;36550;50.472;19.744;2023-03-20T08:45:19;98087.39;;;14.15;52.48
50302;BME280;36550;50.472;19.744;2023-03-20T08:48:03;98086.43;;;14.26;52.35
50302;BME280;36550;50.472;19.744;2023-03-20T08:50:47;98087.40;;;14.39;51.93
50302;BME280;36550;50.472;19.744;2023-03-20T08:53:31;98088.85;;;14.54;52.45
50302;BME280;36550;50.472;19.744;2023-03-20T08:56:15;98085.27;;;14.64;51.38
50302;BME280;36550;50.472;19.744;2023-03-20T08:59:00;98088.74;;;14.77;51.75
50302;BME280;36550;50.472;19.744;2023-03-20T09:01:44;98089.27;;;14.91;51.88
50302;BME280;36550;50.472;19.744;2023-03-20T09:04:28;98090.71;;;15.02;51.55
50302;BME280;36550;50.472;19.744;2023-03-20T09:07:12;98087.55;;;15.04;51.11
50302;BME280;36550;50.472;19.744;2023-03-20T09:09:57;98086.36;;;15.13;51.68
50302;BME280;36550;50.472;19.744;2023-03-20T09:12:41;98082.14;;;15.20;51.33
50302;BME280;36550;50.472;19.744;2023-03-20T09:15:25;98081.77;;;15.25;51.20
50302;BME280;36550;50.472;19.744;2023-03-20T09:18:09;98082.27;;;15.31;51.08
50302;BME280;36550;50.472;19.744;2023-03-20T09:20:53;98081.05;;;15.42;51.32
50302;BME280;36550;50.472;19.744;2023-03-20T09:23:39;98082.05;;;15.39;49.88
50302;BME280;36550;50.472;19.744;2023-03-20T09:26:23;98079.52;;;15.47;50.10
50302;BME280;36550;50.472;19.744;2023-03-20T09:29:07;98081.42;;;15.58;49.99
50302;BME280;36550;50.472;19.744;2023-03-20T09:31:52;98080.52;;;15.66;49.90
50302;BME280;36550;50.472;19.744;2023-03-20T09:34:36;98078.27;;;15.82;50.73
50302;BME280;36550;50.472;19.744;2023-03-20T09:37:20;98080.02;;;16.05;51.20
50302;BME280;36550;50.472;19.744;2023-03-20T09:40:04;98077.83;;;16.18;49.85
50302;BME280;36550;50.472;19.744;2023-03-20T09:42:52;98076.10;;;16.30;50.16
50302;BME280;36550;50.472;19.744;2023-03-20T09:45:46;98080.60;;;16.29;48.99
50302;BME280;36550;50.472;19.744;2023-03-20T09:51:37;98079.55;;;16.02;49.01
50302;BME280;36550;50.472;19.744;2023-03-20T09:54:27;98077.84;;;15.88;49.70
50302;BME280;36550;50.472;19.744;2023-03-20T09:57:18;98079.73;;;15.74;50.09
50302;BME280;36550;50.472;19.744;2023-03-20T10:00:14;98076.13;;;15.56;50.22
50302;BME280;36550;50.472;19.744;2023-03-20T10:03:08;98079.35;;;15.35;50.29
50302;BME280;36550;50.472;19.744;2023-03-20T10:06:31;98078.02;;;15.19;50.89
50302;BME280;36550;50.472;19.744;2023-03-20T10:09:17;98084.07;;;15.07;51.37
50302;BME280;36550;50.472;19.744;2023-03-20T10:15:19;98083.09;;;14.94;51.61
50302;BME280;36550;50.472;19.744;2023-03-20T10:18:08;98080.95;;;14.84;51.81
50302;BME280;36550;50.472;19.744;2023-03-20T10:21:09;98078.90;;;14.72;52.15
50302;BME280;36550;50.472;19.744;2023-03-20T10:24:02;98082.55;;;14.60;52.68
50302;BME280;36550;50.472;19.744;2023-03-20T10:26:49;98086.88;;;14.54;52.91
50302;BME280;36550;50.472;19.744;2023-03-20T10:32:21;98089.56;;;14.38;53.93
50302;BME280;36550;50.472;19.744;2023-03-20T10:35:20;98091.90;;;14.31;54.45
50302;BME280;36550;50.472;19.744;2023-03-20T10:41:14;98096.17;;;14.12;54.70
50302;BME280;36550;50.472;19.744;2023-03-20T10:43:59;98097.05;;;13.98;55.47
50302;BME280;36550;50.472;19.744;2023-03-20T10:46:45;98093.80;;;13.87;55.74
50302;BME280;36550;50.472;19.744;2023-03-20T10:49:38;98090.98;;;13.83;56.21
50302;BME280;36550;50.472;19.744;2023-03-20T10:52:28;98089.92;;;13.91;56.67
50302;BME280;36550;50.472;19.744;2023-03-20T10:55:15;98092.27;;;14.04;56.77
50302;BME280;36550;50.472;19.744;2023-03-20T10:58:20;98089.02;;;14.13;58.08
50302;BME280;36550;50.472;19.744;2023-03-20T11:01:05;98092.34;;;14.15;57.77
50302;BME280;36550;50.472;19.744;2023-03-20T11:03:50;98089.70;;;14.14;58.30
50302;BME280;36550;50.472;19.744;2023-03-20T11:06:37;98089.06;;;14.14;58.11
50302;BME280;36550;50.472;19.744;2023-03-20T11:09:25;98090.90;;;14.30;58.33
50302;BME280;36550;50.472;19.744;2023-03-20T11:12:18;98089.85;;;14.43;58.48
50302;BME280;36550;50.472;19.744;2023-03-20T11:15:04;98085.53;;;14.47;58.46
50302;BME280;36550;50.472;19.744;2023-03-20T11:18:00;98084.33;;;14.47;58.61
50302;BME280;36550;50.472;19.744;2023-03-20T11:23:31;98074.91;;;14.34;58.63
50302;BME280;36550;50.472;19.744;2023-03-20T11:26:16;98075.48;;;14.31;58.73
50302;BME280;36550;50.472;19.744;2023-03-20T11:29:01;98077.16;;;14.30;59.19
50302;BME280;36550;50.472;19.744;2023-03-20T11:31:48;98072.58;;;14.31;59.27
50302;BME280;36550;50.472;19.744;2023-03-20T11:34:35;98070.41;;;14.41;59.66
50302;BME280;36550;50.472;19.744;2023-03-20T11:37:21;98070.44;;;14.48;59.83
50302;BME280;36550;50.472;19.744;2023-03-20T11:42:56;98069.46;;;14.63;60.22
50302;BME280;36550;50.472;19.744;2023-03-20T11:45:41;98066.52;;;14.66;60.09
50302;BME280;36550;50.472;19.744;2023-03-20T11:48:36;98066.84;;;14.67;59.89
50302;BME280;36550;50.472;19.744;2023-03-20T11:51:20;98064.63;;;14.68;60.17
50302;BME280;36550;50.472;19.744;2023-03-20T11:54:05;98062.55;;;14.64;60.17
50302;BME280;36550;50.472;19.744;2023-03-20T11:56:51;98058.78;;;14.62;60.49
50302;BME280;36550;50.472;19.744;2023-03-20T11:59:36;98059.98;;;14.68;60.32
50302;BME280;36550;50.472;19.744;2023-03-20T12:02:21;98061.11;;;14.78;60.42
50302;BME280;36550;50.472;19.744;2023-03-20T12:05:17;98057.57;;;14.74;60.35
50302;BME280;36550;50.472;19.744;2023-03-20T12:10:51;98052.17;;;14.92;60.10
50302;BME280;36550;50.472;19.744;2023-03-20T12:13:38;98052.17;;;14.99;60.29
50302;BME280;36550;50.472;19.744;2023-03-20T12:16:23;98054.19;;;14.97;60.11
50302;BME280;36550;50.472;19.744;2023-03-20T12:19:11;98051.70;;;14.94;60.07
50302;BME280;36550;50.472;19.744;2023-03-20T12:22:13;98049.91;;;14.93;60.53
50302;BME280;36550;50.472;19.744;2023-03-20T12:27:54;98047.28;;;14.84;60.53
50302;BME280;36550;50.472;19.744;2023-03-20T12:30:49;98047.19;;;14.86;60.63
50302;BME280;36550;50.472;19.744;2023-03-20T12:33:45;98040.86;;;14.97;60.54
50302;BME280;36550;50.472;19.744;2023-03-20T12:45:10;98046.41;;;14.58;61.21
50302;BME280;36550;50.472;19.744;2023-03-20T12:51:00;98047.60;;;14.41;61.95
50302;BME280;36550;50.472;19.744;2023-03-20T12:53:55;98043.25;;;14.25;62.62
50302;BME280;36550;50.472;19.744;2023-03-20T12:56:49;98043.16;;;14.19;62.75
50302;BME280;36550;50.472;19.744;2023-03-20T13:02:31;98038.77;;;14.15;63.42
50302;BME280;36550;50.472;19.744;2023-03-20T13:05:34;98044.70;;;14.18;63.01
50302;BME280;36550;50.472;19.744;2023-03-20T13:14:03;98046.65;;;14.07;63.54
50302;BME280;36550;50.472;19.744;2023-03-20T13:19:39;98043.54;;;13.82;64.56
50302;BME280;36550;50.472;19.744;2023-03-20T13:25:32;98038.52;;;13.63;64.28
50302;BME280;36550;50.472;19.744;2023-03-20T13:28:22;98038.68;;;13.51;64.54
50302;BME280;36550;50.472;19.744;2023-03-20T13:34:18;98042.20;;;13.21;65.20
50302;BME280;36550;50.472;19.744;2023-03-20T13:37:10;98038.92;;;13.08;66.08
50302;BME280;36550;50.472;19.744;2023-03-20T13:42:47;98032.80;;;13.13;66.51
50302;BME280;36550;50.472;19.744;2023-03-20T13:45:36;98033.71;;;13.08;67.06
50302;BME280;36550;50.472;19.744;2023-03-20T13:48:28;98032.93;;;13.09;67.02
50302;BME280;36550;50.472;19.744;2023-03-20T13:51:24;98029.13;;;13.13;67.16
50302;BME280;36550;50.472;19.744;2023-03-20T13:57:21;98030.25;;;13.09;68.09
50302;BME280;36550;50.472;19.744;2023-03-20T14:03:28;98023.89;;;13.17;67.14
50302;BME280;36550;50.472;19.744;2023-03-20T14:06:39;98022.81;;;13.22;67.51
50302;BME280;36550;50.472;19.744;2023-03-20T14:09:28;98024.36;;;13.17;67.49
50302;BME280;36550;50.472;19.744;2023-03-20T14:12:13;98023.57;;;13.11;67.59
50302;BME280;36550;50.472;19.744;2023-03-20T14:14:58;98020.38;;;13.04;67.80
50302;BME280;36550;50.472;19.744;2023-03-20T14:17:44;98019.25;;;12.94;68.47
50302;BME280;36550;50.472;19.744;2023-03-20T14:20:33;98021.02;;;12.85;68.07
50302;BME280;36550;50.472;19.744;2023-03-20T14:23:19;98020.73;;;12.73;69.10
50302;BME280;36550;50.472;19.744;2023-03-20T14:26:04;98022.98;;;12.67;68.97
50302;BME280;36550;50.472;19.744;2023-03-20T14:28:55;98021.45;;;12.70;68.68
50302;BME280;36550;50.472;19.744;2023-03-20T14:31:40;98020.96;;;12.71;69.68
50302;BME280;36550;50.472;19.744;2023-03-20T14:34:27;98027.83;;;12.68;69.75
50302;BME280;36550;50.472;19.744;2023-03-20T14:42:57;98023.48;;;12.64;69.10
50302;BME280;36550;50.472;19.744;2023-03-20T14:45:43;98026.59;;;12.59;69.07
50302;BME280;36550;50.472;19.744;2023-03-20T14:48:30;98022.34;;;12.52;69.37
50302;BME280;36550;50.472;19.744;2023-03-20T14:57:17;98021.64;;;12.41;69.29
50302;BME280;36550;50.472;19.744;2023-03-20T15:00:02;98020.56;;;12.34;69.43
50302;BME280;36550;50.472;19.744;2023-03-20T15:02:49;98019.30;;;12.30;69.11
50302;BME280;36550;50.472;19.744;2023-03-20T15:05:34;98017.56;;;12.26;68.79
50302;BME280;36550;50.472;19.744;2023-03-20T15:08:23;98016.02;;;12.24;68.95
50302;BME280;36550;50.472;19.744;2023-03-20T15:11:08;98014.15;;;12.22;69.53
50302;BME280;36550;50.472;19.744;2023-03-20T15:13:53;98012.20;;;12.21;69.46
50302;BME280;36550;50.472;19.744;2023-03-20T15:16:38;98011.27;;;12.22;69.26
50302;BME280;36550;50.472;19.744;2023-03-20T15:19:22;98011.19;;;12.24;69.39
50302;BME280;36550;50.472;19.744;2023-03-20T15:22:13;98013.77;;;12.29;69.30
50302;BME280;36550;50.472;19.744;2023-03-20T15:24:57;98009.38;;;12.36;69.06
50302;BME280;36550;50.472;19.744;2023-03-20T15:27:41;98004.30;;;12.42;69.23
50302;BME280;36550;50.472;19.744;2023-03-20T15:30:25;98004.27;;;12.49;69.00
50302;BME280;36550;50.472;19.744;2023-03-20T15:33:31;98003.12;;;12.56;68.99
50302;BME280;36550;50.472;19.744;2023-03-20T15:36:15;97999.32;;;12.55;68.64
50302;BME280;36550;50.472;19.744;2023-03-20T15:41:57;98001.50;;;12.43;68.94
50302;BME280;36550;50.472;19.744;2023-03-20T15:44:42;98001.54;;;12.37;68.75
50302;BME280;36550;50.472;19.744;2023-03-20T15:47:27;98003.66;;;12.33;68.89
50302;BME280;36550;50.472;19.744;2023-03-20T15:50:12;98005.27;;;12.36;69.26
50302;BME280;36550;50.472;19.744;2023-03-20T15:52:56;98009.00;;;12.35;69.00
50302;BME280;36550;50.472;19.744;2023-03-20T15:55:41;98009.77;;;12.34;69.23
50302;BME280;36550;50.472;19.744;2023-03-20T15:58:30;98012.17;;;12.28;69.39
50302;BME280;36550;50.472;19.744;2023-03-20T16:01:16;98012.41;;;12.22;69.15
50302;BME280;36550;50.472;19.744;2023-03-20T16:04:00;98011.82;;;12.15;69.01
50302;BME280;36550;50.472;19.744;2023-03-20T16:06:56;98013.51;;;12.08;68.93
50302;BME280;36550;50.472;19.744;2023-03-20T16:09:41;98016.98;;;12.04;69.17
50302;BME280;36550;50.472;19.744;2023-03-20T16:12:25;98011.98;;;12.00;69.42
50302;BME280;36550;50.472;19.744;2023-03-20T16:15:12;98008.23;;;11.95;69.40
50302;BME280;36550;50.472;19.744;2023-03-20T16:17:57;98007.79;;;11.90;69.26
50302;BME280;36550;50.472;19.744;2023-03-20T16:20:45;98005.94;;;11.82;69.38
50302;BME280;36550;50.472;19.744;2023-03-20T16:23:36;98005.45;;;11.74;69.41
50302;BME280;36550;50.472;19.744;2023-03-20T16:26:21;98006.70;;;11.62;69.69
50302;BME280;36550;50.472;19.744;2023-03-20T16:29:06;98001.75;;;11.51;69.77
50302;BME280;36550;50.472;19.744;2023-03-20T16:31:55;97996.80;;;11.40;69.84
50302;BME280;36550;50.472;19.744;2023-03-20T16:34:40;97990.25;;;11.30;70.02
50302;BME280;36550;50.472;19.744;2023-03-20T16:37:28;97991.12;;;11.22;69.93